Pagrindinis puslapis
METAR-TAF:

METAR-TAF

Oro uostai :

Tokatas, Turkija

platuma: 40-18N, ilguma: 036-34E, Aukštis: 608 m

Dabartinis oras

Ataskaita buvo paskelbta 15 minutes, ne 05:50 UTC
Vėjas 2 kt nuo kintamojo kryptimis
Temperatūra 7°C
Drėgmė 66%
Slėgis 1015 hPa
Matomumas 10 km arba daugiau
nėra debesų žemiau 1500 m ir nėra kamuolinių lietaus debesų

METAR: LTAW 100550Z VRB02KT CAVOK 07/01 Q1015

Laikas: 09:05 (06:05 UTC)

Prognozė

Ataskaita buvo paskelbta 1 valandą ir 25 minutes, ne 04:40 UTC
Prognozė galioja nuo 10 metu 06 UTC su 10 metu 15 UTC
Vėjas 2 kt nuo kintamojo kryptimis
Matomumas 10 km arba daugiau
nėra debesų žemiau 1500 m ir nėra kamuolinių lietaus debesų
Tapsmas
nuo 10 metu 09 UTC su 10 metu 12 UTC
Vėjas 18 kt iš Šiaurės/Šiaurės Rytų

TAF: LTAW 100440Z 1006/1015 VRB02KT CAVOK BECMG 1009/1012 02018KT

Orai ataskaitas ir orų prognozės (METAR, TAF).

turimą stotys yra geltonos ir raudonos taškus žemėlapyje.

Perkelti pele per norėdami pamatyti stoties vardą.

Tada spustelėkite, norėdami matyti oro stebėjimo ir prognozės.

Norėdami pakeisti žemėlapį: spustelėkite ant žalios mygtukų su juodo kryžiaus žemyn,; žalią mygtuką su brūkšneliu, jei norite nutolinti; arba žalių rodyklių gretimoms žemėlapius.


METAR-TAF: